createdAt,value
2017-07-07T00:01:08.860Z,19.40
2017-07-07T00:03:35.250Z,19.40
2017-07-07T00:06:01.647Z,19.30
2017-07-07T00:08:28.044Z,19.30
2017-07-07T00:10:55.181Z,19.30
2017-07-07T00:13:22.353Z,19.30
2017-07-07T00:15:48.736Z,19.30
2017-07-07T00:18:15.113Z,19.20
2017-07-07T00:20:41.568Z,19.20
2017-07-07T00:23:07.939Z,19.20
2017-07-07T00:25:34.473Z,19.20
2017-07-07T00:28:00.853Z,19.20
2017-07-07T00:30:27.247Z,19.20
2017-07-07T00:32:53.661Z,19.00
2017-07-07T00:35:20.056Z,19.00
2017-07-07T00:37:46.475Z,19.00
2017-07-07T00:40:12.899Z,19.00
2017-07-07T00:42:40.021Z,19.00
2017-07-07T00:45:06.431Z,19.00
2017-07-07T00:47:32.819Z,19.00
2017-07-07T00:49:59.248Z,19.00
2017-07-07T00:52:26.378Z,19.00
2017-07-07T00:54:52.821Z,19.00
2017-07-07T00:57:20.395Z,18.90
2017-07-07T00:59:46.782Z,18.90
2017-07-07T01:02:13.168Z,18.80
2017-07-07T01:04:39.584Z,18.80
2017-07-07T01:07:06.720Z,18.80
2017-07-07T01:09:33.081Z,18.80
2017-07-07T01:11:59.487Z,18.80
2017-07-07T01:14:26.645Z,18.70
2017-07-07T01:16:53.796Z,18.70
2017-07-07T01:19:20.951Z,18.70
2017-07-07T01:21:47.333Z,18.70
2017-07-07T01:24:13.744Z,18.70
2017-07-07T01:26:40.112Z,18.70
2017-07-07T01:29:06.496Z,18.60
2017-07-07T01:31:32.915Z,18.60
2017-07-07T01:33:59.324Z,18.60
2017-07-07T01:36:26.492Z,18.60
2017-07-07T01:38:53.695Z,18.60
2017-07-07T01:41:20.109Z,18.60
2017-07-07T01:43:46.523Z,18.60
2017-07-07T01:46:12.948Z,18.60
2017-07-07T01:48:39.375Z,18.60
2017-07-07T01:51:06.539Z,18.50
2017-07-07T01:53:32.980Z,18.50
2017-07-07T01:55:59.400Z,18.50
2017-07-07T01:58:25.945Z,18.50
2017-07-07T02:00:52.377Z,18.50
2017-07-07T02:03:18.776Z,18.40
2017-07-07T02:05:45.191Z,18.40
2017-07-07T02:08:11.573Z,18.50
2017-07-07T02:10:38.133Z,18.50
2017-07-07T02:13:11.392Z,18.40
2017-07-07T02:15:37.949Z,18.40
2017-07-07T02:18:04.392Z,18.40
2017-07-07T02:20:30.789Z,18.30
2017-07-07T02:22:57.940Z,18.30
2017-07-07T02:25:25.057Z,18.30
2017-07-07T02:27:51.456Z,18.30
2017-07-07T02:30:17.881Z,18.30
2017-07-07T02:32:44.317Z,18.20
2017-07-07T02:35:10.724Z,18.30
2017-07-07T02:37:37.119Z,18.20
2017-07-07T02:40:03.560Z,18.20
2017-07-07T02:42:29.984Z,18.20
2017-07-07T02:44:56.364Z,18.20
2017-07-07T02:47:22.757Z,18.20
2017-07-07T02:49:49.930Z,18.20
2017-07-07T02:52:17.045Z,18.20
2017-07-07T02:54:43.444Z,18.20
2017-07-07T02:57:09.852Z,18.20
2017-07-07T02:59:36.392Z,18.20
2017-07-07T03:02:02.764Z,18.20
2017-07-07T03:04:29.157Z,18.20
2017-07-07T03:06:55.565Z,18.20
2017-07-07T03:09:22.709Z,18.20
2017-07-07T03:11:49.871Z,18.20
2017-07-07T03:14:17.024Z,18.10
2017-07-07T03:16:44.149Z,18.10
2017-07-07T03:19:10.588Z,18.10
2017-07-07T03:21:36.976Z,18.10
2017-07-07T03:24:03.383Z,18.10
2017-07-07T03:26:29.763Z,18.00
2017-07-07T03:28:56.176Z,18.10
2017-07-07T03:31:22.564Z,18.00
2017-07-07T03:33:49.936Z,18.00
2017-07-07T03:36:16.336Z,18.00
2017-07-07T03:38:43.451Z,17.90
2017-07-07T03:41:09.874Z,17.90
2017-07-07T03:43:36.254Z,17.90
2017-07-07T03:46:02.664Z,17.90
2017-07-07T03:48:29.100Z,17.80
2017-07-07T03:50:55.530Z,17.90
2017-07-07T03:53:21.925Z,17.90
2017-07-07T03:55:48.321Z,18.00
2017-07-07T03:58:15.697Z,18.00
2017-07-07T04:00:42.092Z,18.00
2017-07-07T04:03:08.484Z,18.10
2017-07-07T04:05:34.901Z,18.10
2017-07-07T04:08:01.280Z,18.10
2017-07-07T04:10:27.821Z,18.20
2017-07-07T04:12:54.217Z,18.30
2017-07-07T04:15:20.600Z,18.30
2017-07-07T04:17:47.772Z,18.40
2017-07-07T04:20:14.194Z,18.40
2017-07-07T04:22:41.312Z,18.30
2017-07-07T04:25:07.708Z,18.30
2017-07-07T04:27:34.093Z,18.40
2017-07-07T04:30:16.350Z,18.60
2017-07-07T04:32:42.741Z,18.50
2017-07-07T04:35:09.876Z,18.70
2017-07-07T04:37:37.031Z,18.70
2017-07-07T04:40:04.322Z,18.70
2017-07-07T04:42:30.837Z,18.70
2017-07-07T04:44:57.227Z,18.80
2017-07-07T04:47:23.629Z,18.80
2017-07-07T04:49:50.076Z,18.90
2017-07-07T04:52:16.472Z,18.90
2017-07-07T04:54:42.899Z,18.90
2017-07-07T04:57:09.292Z,18.90
2017-07-07T04:59:35.705Z,19.00
2017-07-07T05:02:02.101Z,19.00
2017-07-07T05:04:28.535Z,19.10
2017-07-07T05:06:54.927Z,19.10
2017-07-07T05:09:21.327Z,19.20
2017-07-07T05:11:47.752Z,19.20
2017-07-07T05:14:14.152Z,19.20
2017-07-07T05:16:40.560Z,19.20
2017-07-07T05:19:06.969Z,19.30
2017-07-07T05:21:33.513Z,19.30
2017-07-07T05:23:59.885Z,19.30
2017-07-07T05:26:27.009Z,19.40
2017-07-07T05:28:53.425Z,19.30
2017-07-07T05:31:19.872Z,19.40
2017-07-07T05:33:46.260Z,19.40
2017-07-07T05:36:12.674Z,19.40
2017-07-07T05:38:39.109Z,19.40
2017-07-07T05:41:05.491Z,19.50
2017-07-07T05:43:31.997Z,19.50
2017-07-07T05:45:58.369Z,19.50
2017-07-07T05:48:24.760Z,19.60
2017-07-07T05:50:51.200Z,19.60
2017-07-07T05:53:17.620Z,19.60
2017-07-07T05:55:44.024Z,19.70
2017-07-07T05:58:11.180Z,19.70
2017-07-07T06:00:37.652Z,19.70
2017-07-07T06:03:04.093Z,19.70
2017-07-07T06:05:30.489Z,19.80
2017-07-07T06:07:56.875Z,19.90
2017-07-07T06:10:23.289Z,19.90
2017-07-07T06:12:49.811Z,20.00
2017-07-07T06:15:16.257Z,20.00
2017-07-07T06:17:42.425Z,20.10
2017-07-07T06:20:09.476Z,20.20
2017-07-07T06:22:35.879Z,20.10
2017-07-07T06:25:02.304Z,20.20
2017-07-07T06:27:28.716Z,20.20
2017-07-07T06:29:55.121Z,20.30
2017-07-07T06:32:22.768Z,20.30
2017-07-07T06:34:49.191Z,20.40
2017-07-07T06:37:15.570Z,20.40
2017-07-07T06:39:42.004Z,20.50
2017-07-07T06:42:08.400Z,20.50
2017-07-07T06:44:35.549Z,20.70
2017-07-07T06:47:02.856Z,20.80
2017-07-07T06:49:29.590Z,20.80
2017-07-07T06:51:56.041Z,20.90
2017-07-07T06:54:22.469Z,21.00
2017-07-07T06:56:49.036Z,21.00
2017-07-07T06:59:16.186Z,21.10
2017-07-07T07:01:43.329Z,21.20
2017-07-07T07:04:10.500Z,21.20
2017-07-07T07:06:36.916Z,21.20
2017-07-07T07:09:04.097Z,21.40
2017-07-07T07:11:30.517Z,21.40
2017-07-07T07:14:12.705Z,21.60
2017-07-07T07:16:39.095Z,21.60
2017-07-07T07:19:05.496Z,21.60
2017-07-07T07:21:32.017Z,21.70
2017-07-07T07:23:59.128Z,21.70
2017-07-07T07:26:25.529Z,21.70
2017-07-07T07:28:51.969Z,21.90
2017-07-07T07:31:18.416Z,22.00
2017-07-07T07:33:44.853Z,22.10
2017-07-07T07:36:11.237Z,22.20
2017-07-07T07:38:37.624Z,22.30
2017-07-07T07:41:04.020Z,22.30
2017-07-07T07:43:30.443Z,22.30
2017-07-07T07:45:56.895Z,22.40
2017-07-07T07:48:23.285Z,22.40
2017-07-07T07:50:50.455Z,22.60
2017-07-07T07:53:16.848Z,22.50
2017-07-07T07:55:43.231Z,22.60
2017-07-07T07:58:09.668Z,22.70
2017-07-07T08:00:36.098Z,22.70
2017-07-07T08:03:02.503Z,22.80
2017-07-07T08:05:29.677Z,23.00
2017-07-07T08:07:56.068Z,22.90
2017-07-07T08:10:23.208Z,23.20
2017-07-07T08:12:49.631Z,23.10
2017-07-07T08:15:17.001Z,23.30
2017-07-07T08:17:43.389Z,23.40
2017-07-07T08:20:09.780Z,23.40
2017-07-07T08:22:37.045Z,23.60
2017-07-07T08:25:04.181Z,23.70
2017-07-07T08:27:31.311Z,23.70
2017-07-07T08:29:57.736Z,23.70
2017-07-07T08:32:24.122Z,23.80
2017-07-07T08:34:50.520Z,23.90
2017-07-07T08:37:17.664Z,24.00
2017-07-07T08:39:44.086Z,24.00
2017-07-07T08:42:10.505Z,24.10
2017-07-07T08:44:36.885Z,24.10
2017-07-07T08:47:03.312Z,24.20
2017-07-07T08:49:30.448Z,24.40
2017-07-07T08:51:56.852Z,24.30
2017-07-07T08:54:23.440Z,24.50
2017-07-07T08:56:49.833Z,24.50
2017-07-07T08:59:16.212Z,24.60
2017-07-07T09:01:42.647Z,24.70
2017-07-07T09:04:09.212Z,24.70
2017-07-07T09:06:35.613Z,24.70
2017-07-07T09:09:02.036Z,24.90
2017-07-07T09:11:28.445Z,25.00
2017-07-07T09:13:55.581Z,25.10
2017-07-07T09:16:21.983Z,25.10
2017-07-07T09:18:48.405Z,25.20
2017-07-07T09:21:14.805Z,25.30
2017-07-07T09:23:41.936Z,25.30
2017-07-07T09:26:08.336Z,25.30
2017-07-07T09:28:34.728Z,25.40
2017-07-07T09:31:01.881Z,25.50
2017-07-07T09:33:28.340Z,25.50
2017-07-07T09:35:54.960Z,25.60
2017-07-07T09:38:21.353Z,25.60
2017-07-07T09:40:47.741Z,25.70
2017-07-07T09:43:14.560Z,25.80
2017-07-07T09:45:40.943Z,25.80
2017-07-07T09:48:07.373Z,25.90
2017-07-07T09:50:33.807Z,26.10
2017-07-07T09:53:00.580Z,26.20
2017-07-07T09:55:27.224Z,26.20
2017-07-07T09:57:53.764Z,26.40
2017-07-07T10:00:20.330Z,26.40
2017-07-07T10:02:48.074Z,26.50
2017-07-07T10:05:14.473Z,26.50
2017-07-07T10:07:40.943Z,26.60
2017-07-07T10:10:07.476Z,26.80
2017-07-07T10:12:33.989Z,27.00
2017-07-07T10:15:00.516Z,27.20
2017-07-07T10:17:26.933Z,27.40
2017-07-07T10:19:53.337Z,27.40
2017-07-07T10:22:19.715Z,27.60
2017-07-07T10:24:46.900Z,27.50
2017-07-07T10:27:13.276Z,27.50
2017-07-07T10:29:39.677Z,27.60
2017-07-07T10:32:06.105Z,27.70
2017-07-07T10:34:32.532Z,27.90
2017-07-07T10:36:58.912Z,27.90
2017-07-07T10:39:25.456Z,28.10
2017-07-07T10:41:52.941Z,28.10
2017-07-07T10:44:19.336Z,28.30
2017-07-07T10:46:46.016Z,28.50
2017-07-07T10:49:12.400Z,28.50
2017-07-07T10:51:38.789Z,28.60
2017-07-07T10:54:05.229Z,28.80
2017-07-07T10:56:31.616Z,29.00
2017-07-07T10:58:58.036Z,29.10
2017-07-07T11:01:24.452Z,29.20
2017-07-07T11:03:50.845Z,29.30
2017-07-07T11:06:17.286Z,29.40
2017-07-07T11:08:43.664Z,29.50
2017-07-07T11:11:10.048Z,29.50
2017-07-07T11:13:36.448Z,29.60
2017-07-07T11:16:02.856Z,29.60
2017-07-07T11:18:29.256Z,29.60
2017-07-07T11:21:10.568Z,29.80
2017-07-07T11:23:37.148Z,29.90
2017-07-07T11:26:03.532Z,30.00
2017-07-07T11:28:29.913Z,30.10
2017-07-07T11:30:56.327Z,30.30
2017-07-07T11:33:22.744Z,30.40
2017-07-07T11:35:49.158Z,30.60
2017-07-07T11:38:15.600Z,30.60
2017-07-07T11:40:42.388Z,30.70
2017-07-07T11:43:08.826Z,30.70
2017-07-07T11:45:35.209Z,30.70
2017-07-07T11:48:01.624Z,30.60
2017-07-07T11:50:28.237Z,30.50
2017-07-07T11:52:55.582Z,30.10
2017-07-07T11:55:22.298Z,30.00
2017-07-07T11:57:48.811Z,30.00
2017-07-07T12:00:16.453Z,29.80
2017-07-07T12:02:42.928Z,29.80
2017-07-07T12:05:09.499Z,29.70
2017-07-07T12:07:35.973Z,29.70
2017-07-07T12:10:02.582Z,29.40
2017-07-07T12:12:29.101Z,29.10
2017-07-07T12:14:55.576Z,28.90
2017-07-07T12:17:22.170Z,28.90
2017-07-07T12:19:48.626Z,28.90
2017-07-07T12:22:15.264Z,28.90
2017-07-07T12:24:41.849Z,29.10
2017-07-07T12:27:08.313Z,29.30
2017-07-07T12:29:34.717Z,29.60
2017-07-07T12:32:01.902Z,29.90
2017-07-07T12:34:28.337Z,29.80
2017-07-07T12:36:54.760Z,30.00
2017-07-07T12:39:21.186Z,30.00
2017-07-07T12:41:47.593Z,30.20
2017-07-07T12:44:14.789Z,30.10
2017-07-07T12:46:41.164Z,30.10
2017-07-07T12:49:07.594Z,29.90
2017-07-07T12:51:33.989Z,29.80
2017-07-07T12:54:00.393Z,29.90
2017-07-07T12:56:26.919Z,30.00
2017-07-07T12:58:54.040Z,30.40
2017-07-07T13:01:20.809Z,30.40
2017-07-07T13:03:47.468Z,30.80
2017-07-07T13:06:13.880Z,31.20
2017-07-07T13:08:41.081Z,31.80
2017-07-07T13:11:15.216Z,32.00
2017-07-07T13:13:41.641Z,32.00
2017-07-07T13:16:08.077Z,32.20
2017-07-07T13:18:34.464Z,32.40
2017-07-07T13:21:00.861Z,32.60
2017-07-07T13:23:28.011Z,32.30
2017-07-07T13:25:54.392Z,32.30
2017-07-07T13:28:20.809Z,31.60
2017-07-07T13:30:47.205Z,31.30
2017-07-07T13:33:14.584Z,30.90
2017-07-07T13:35:40.976Z,30.80
2017-07-07T13:38:07.344Z,30.70
2017-07-07T13:40:33.781Z,30.70
2017-07-07T13:43:00.228Z,30.60
2017-07-07T13:45:26.617Z,30.50
2017-07-07T13:47:53.000Z,30.40
2017-07-07T13:50:19.419Z,30.30
2017-07-07T13:52:45.797Z,30.10
2017-07-07T13:55:12.208Z,29.80
2017-07-07T13:57:38.625Z,29.50
2017-07-07T14:00:05.013Z,29.20
2017-07-07T14:02:31.426Z,28.90
2017-07-07T14:04:57.868Z,28.70
2017-07-07T14:07:24.271Z,28.60
2017-07-07T14:09:50.705Z,28.50
2017-07-07T14:12:17.108Z,28.40
2017-07-07T14:14:43.528Z,28.30
2017-07-07T14:17:10.684Z,27.90
2017-07-07T14:19:37.070Z,27.80
2017-07-07T14:22:03.503Z,27.60
2017-07-07T14:24:29.924Z,27.60
2017-07-07T14:26:56.373Z,27.60
2017-07-07T14:29:22.771Z,27.60
2017-07-07T14:31:49.201Z,27.60
2017-07-07T14:34:15.678Z,27.50
2017-07-07T14:36:42.085Z,27.40
2017-07-07T14:39:08.486Z,27.30
2017-07-07T14:41:35.169Z,27.20
2017-07-07T14:44:02.333Z,27.20
2017-07-07T14:46:28.833Z,27.10
2017-07-07T14:48:55.263Z,27.00
2017-07-07T14:51:21.653Z,27.00
2017-07-07T14:53:48.105Z,27.00
2017-07-07T14:56:14.487Z,26.80
2017-07-07T14:58:40.908Z,26.60
2017-07-07T15:01:07.296Z,26.60
2017-07-07T15:03:33.689Z,26.80
2017-07-07T15:06:00.108Z,27.10
2017-07-07T15:08:26.557Z,27.50
2017-07-07T15:10:52.977Z,27.90
2017-07-07T15:13:19.362Z,28.40
2017-07-07T15:15:45.785Z,28.70
2017-07-07T15:18:12.181Z,28.90
2017-07-07T15:20:38.565Z,29.10
2017-07-07T15:23:05.007Z,29.20
2017-07-07T15:25:31.401Z,29.30
2017-07-07T15:27:58.553Z,29.20
2017-07-07T15:30:24.957Z,29.20
2017-07-07T15:32:51.459Z,29.00
2017-07-07T15:35:17.876Z,29.00
2017-07-07T15:37:44.564Z,29.10
2017-07-07T15:40:11.792Z,29.10
2017-07-07T15:42:38.197Z,29.10
2017-07-07T15:45:04.637Z,29.00
2017-07-07T15:47:31.028Z,28.50
2017-07-07T15:49:57.425Z,28.20
2017-07-07T15:52:23.917Z,28.10
2017-07-07T15:54:50.356Z,27.70
2017-07-07T15:57:16.780Z,27.20
2017-07-07T15:59:43.920Z,26.80
2017-07-07T16:02:10.355Z,26.80
2017-07-07T16:04:36.805Z,26.70
2017-07-07T16:07:03.196Z,26.30
2017-07-07T16:09:29.626Z,26.00
2017-07-07T16:11:56.020Z,26.00
2017-07-07T16:14:22.413Z,26.10
2017-07-07T16:16:48.822Z,26.20
2017-07-07T16:19:15.201Z,25.90
2017-07-07T16:21:41.645Z,25.90
2017-07-07T16:24:08.041Z,26.10
2017-07-07T16:26:34.431Z,26.20
2017-07-07T16:29:00.847Z,26.30
2017-07-07T16:31:27.284Z,26.00
2017-07-07T16:33:53.677Z,26.00
2017-07-07T16:36:20.848Z,26.00
2017-07-07T16:38:47.309Z,26.00
2017-07-07T16:41:13.701Z,25.90
2017-07-07T16:43:40.907Z,25.50
2017-07-07T16:46:07.424Z,25.50
2017-07-07T16:48:33.814Z,25.40
2017-07-07T16:51:00.932Z,25.40
2017-07-07T16:53:27.461Z,25.30
2017-07-07T16:55:53.865Z,25.40
2017-07-07T16:58:20.281Z,25.50
2017-07-07T17:00:46.706Z,25.30
2017-07-07T17:03:13.125Z,25.20
2017-07-07T17:05:40.374Z,25.10
2017-07-07T17:08:07.484Z,25.00
2017-07-07T17:10:33.871Z,25.00
2017-07-07T17:13:00.300Z,25.00
2017-07-07T17:15:26.731Z,25.00
2017-07-07T17:17:53.126Z,25.00
2017-07-07T17:20:19.532Z,25.00
2017-07-07T17:22:45.919Z,24.90
2017-07-07T17:25:12.337Z,24.90
2017-07-07T17:27:38.725Z,24.80
2017-07-07T17:30:05.200Z,24.70
2017-07-07T17:32:31.713Z,24.60
2017-07-07T17:34:58.097Z,24.50
2017-07-07T17:37:25.213Z,24.50
2017-07-07T17:39:51.637Z,24.50
2017-07-07T17:42:18.068Z,24.40
2017-07-07T17:44:44.461Z,24.40
2017-07-07T17:47:10.886Z,24.50
2017-07-07T17:49:37.289Z,24.50
2017-07-07T17:52:03.676Z,24.50
2017-07-07T17:54:30.093Z,24.50
2017-07-07T17:56:56.532Z,24.50
2017-07-07T17:59:23.116Z,24.40
2017-07-07T18:01:49.528Z,24.30
2017-07-07T18:04:15.916Z,24.10
2017-07-07T18:06:42.325Z,24.20
2017-07-07T18:09:08.720Z,24.20
2017-07-07T18:11:35.148Z,24.20
2017-07-07T18:14:01.564Z,24.20
2017-07-07T18:16:27.969Z,24.30
2017-07-07T18:18:54.373Z,24.20
2017-07-07T18:21:20.765Z,24.10
2017-07-07T18:23:47.179Z,24.10
2017-07-07T18:26:13.819Z,24.10
2017-07-07T18:28:40.224Z,24.10
2017-07-07T18:31:07.880Z,23.90
2017-07-07T18:33:34.337Z,23.90
2017-07-07T18:36:00.725Z,23.80
2017-07-07T18:38:27.129Z,23.60
2017-07-07T18:40:53.520Z,23.60
2017-07-07T18:43:20.700Z,23.70
2017-07-07T18:45:47.109Z,23.70
2017-07-07T18:48:14.221Z,23.50
2017-07-07T18:50:40.658Z,23.50
2017-07-07T18:53:07.052Z,23.50
2017-07-07T18:55:33.447Z,23.40
2017-07-07T18:58:00.717Z,23.30
2017-07-07T19:00:27.101Z,23.30
2017-07-07T19:02:53.489Z,23.30
2017-07-07T19:05:20.019Z,23.20
2017-07-07T19:07:46.404Z,23.10
2017-07-07T19:10:12.804Z,23.00
2017-07-07T19:12:39.223Z,23.00
2017-07-07T19:15:05.616Z,23.00
2017-07-07T19:17:31.989Z,22.90
2017-07-07T19:19:58.621Z,22.80
2017-07-07T19:22:25.020Z,22.70
2017-07-07T19:24:52.208Z,22.70
2017-07-07T19:27:18.605Z,22.70
2017-07-07T19:29:44.977Z,22.70
2017-07-07T19:32:11.388Z,22.70
2017-07-07T19:34:38.593Z,22.60
2017-07-07T19:37:04.984Z,22.50
2017-07-07T19:39:31.403Z,22.60
2017-07-07T19:41:58.517Z,22.50
2017-07-07T19:44:24.924Z,22.50
2017-07-07T19:46:51.329Z,22.60
2017-07-07T19:49:17.780Z,22.50
2017-07-07T19:51:44.184Z,22.50
2017-07-07T19:54:10.602Z,22.40
2017-07-07T19:56:37.736Z,22.40
2017-07-07T19:59:04.136Z,22.30
2017-07-07T20:01:30.738Z,22.30
2017-07-07T20:03:57.160Z,22.30
2017-07-07T20:06:24.297Z,22.20
2017-07-07T20:08:50.716Z,22.20
2017-07-07T20:11:17.261Z,22.20
2017-07-07T20:13:43.716Z,22.10
2017-07-07T20:16:10.849Z,22.10
2017-07-07T20:18:37.297Z,22.10
2017-07-07T20:21:04.416Z,21.90
2017-07-07T20:23:30.836Z,21.90
2017-07-07T20:25:57.233Z,21.90
2017-07-07T20:28:23.644Z,21.90
2017-07-07T20:30:50.819Z,21.90
2017-07-07T20:33:17.239Z,21.80
2017-07-07T20:35:43.885Z,21.70
2017-07-07T20:38:10.293Z,21.70
2017-07-07T20:40:37.421Z,21.60
2017-07-07T20:43:03.856Z,21.60
2017-07-07T20:45:30.268Z,21.60
2017-07-07T20:47:56.685Z,21.60
2017-07-07T20:50:23.102Z,21.60
2017-07-07T20:52:49.492Z,21.50
2017-07-07T20:55:15.942Z,21.50
2017-07-07T20:57:42.313Z,21.50
2017-07-07T21:00:08.718Z,21.50
2017-07-07T21:02:35.136Z,21.40
2017-07-07T21:05:02.301Z,21.30
2017-07-07T21:07:28.728Z,21.20
2017-07-07T21:09:55.924Z,21.10
2017-07-07T21:12:22.349Z,21.10
2017-07-07T21:14:48.725Z,21.20
2017-07-07T21:17:15.317Z,21.20
2017-07-07T21:19:41.720Z,21.10
2017-07-07T21:22:08.104Z,21.10
2017-07-07T21:24:34.639Z,21.10
2017-07-07T21:27:01.020Z,21.10
2017-07-07T21:29:27.389Z,20.90
2017-07-07T21:31:53.890Z,21.00
2017-07-07T21:34:20.273Z,21.00
2017-07-07T21:36:46.684Z,21.00
2017-07-07T21:39:13.097Z,20.90
2017-07-07T21:41:39.557Z,20.90
2017-07-07T21:44:05.960Z,20.90
2017-07-07T21:46:32.376Z,20.90
2017-07-07T21:48:58.762Z,20.80
2017-07-07T21:51:25.143Z,20.80
2017-07-07T21:53:51.557Z,20.80
2017-07-07T21:56:18.941Z,20.60
2017-07-07T21:58:45.346Z,20.60
2017-07-07T22:01:12.472Z,20.60
2017-07-07T22:03:38.879Z,20.60
2017-07-07T22:06:05.296Z,20.70
2017-07-07T22:08:31.716Z,20.70
2017-07-07T22:10:58.096Z,20.70
2017-07-07T22:13:24.495Z,20.60
2017-07-07T22:15:50.881Z,20.60
2017-07-07T22:18:17.552Z,20.60
2017-07-07T22:20:44.669Z,20.60
2017-07-07T22:23:11.051Z,20.60
2017-07-07T22:25:37.449Z,20.60
2017-07-07T22:28:04.568Z,20.60
2017-07-07T22:30:31.129Z,20.60
2017-07-07T22:32:58.265Z,20.50
2017-07-07T22:35:24.652Z,20.50
2017-07-07T22:37:51.056Z,20.60
2017-07-07T22:40:17.484Z,20.50
2017-07-07T22:42:43.900Z,20.50
2017-07-07T22:45:10.341Z,20.50
2017-07-07T22:47:37.493Z,20.40
2017-07-07T22:50:04.657Z,20.40
2017-07-07T22:52:31.041Z,20.40
2017-07-07T22:54:57.728Z,20.40
2017-07-07T22:57:24.105Z,20.40
2017-07-07T22:59:50.505Z,20.50
2017-07-07T23:02:16.924Z,20.40
2017-07-07T23:04:43.308Z,20.40
2017-07-07T23:07:09.741Z,20.40
2017-07-07T23:09:36.137Z,20.40
2017-07-07T23:12:02.650Z,20.50
2017-07-07T23:14:29.047Z,20.40
2017-07-07T23:16:55.433Z,20.40
2017-07-07T23:19:21.836Z,20.50
2017-07-07T23:21:48.982Z,20.40
2017-07-07T23:24:16.248Z,20.40
2017-07-07T23:26:43.371Z,20.40
2017-07-07T23:29:09.757Z,20.40
2017-07-07T23:31:36.169Z,20.40
2017-07-07T23:34:02.565Z,20.40
2017-07-07T23:36:28.965Z,20.50
2017-07-07T23:38:55.656Z,20.50
2017-07-07T23:41:22.931Z,20.50
2017-07-07T23:43:49.341Z,20.50
2017-07-07T23:46:15.729Z,20.50
2017-07-07T23:48:42.137Z,20.50
2017-07-07T23:51:08.525Z,20.50
2017-07-07T23:53:34.924Z,20.60
2017-07-07T23:56:01.324Z,20.60
2017-07-07T23:58:27.704Z,20.60
